Home > Products > Valid Products > TAF

000
FTUS42 TJSJ 202300
TAFJSJ
TAF
TJSJ 202340Z 2100/2124 09005KT P6SM FEW025
     FM211300 07013KT P6SM SCT025
     FM212300 07005KT P6SM FEW025=



000
FTUS42 TJSJ 202300
TAFJPS
TAF
TJPS 202340Z 2100/2124 VRB04KT P6SM FEW030
     FM211500 13012KT P6SM FEW030 SCT060
     FM212300 VRB04KT P6SM FEW030
      AMD NOT SKED TIL 210300=



000
FTUS42 TJSJ 202300
TAFIST
TAF
TIST 202340Z 2100/2124 08009KT P6SM FEW030
     FM211300 07014KT P6SM SCT025
     FM212200 06010KT P6SM FEW030=



000
FTUS42 TJSJ 202300
TAFJMZ
TAF
TJMZ 202340Z 2100/2124 06005KT P6SM FEW025
     FM211530 27010KT P6SM SCT025 BKN040
     FM212300 06005KT P6SM FEW025
      AMD NOT SKED=



000
FTUS42 TJSJ 202300
TAFJBQ
TAF
TJBQ 202340Z 2100/2124 10007KT P6SM FEW025
     FM211400 08018KT P6SM SCT025
     FM212330 08008KT P6SM FEW025
      AMD NOT SKED 2102/2111=



000
FTUS42 TJSJ 202300
TAFKPK
TAF
TKPK 202340Z 2100/2124 06013KT P6SM VCSH SCT017
     FM211200 06012KT P6SM SCT018
      AMD NOT SKED 2102/2111=



000
FTUS42 TJSJ 202300
TAFISX
TAF
TISX 202340Z 2100/2124 05007KT P6SM FEW030
     FM211300 07013KT P6SM SCT025
     FM212300 05007KT P6SM FEW030
      AMD NOT SKED=



000
FTUS42 TJSJ 202300
TAFNCM
TAF
TNCM 202340Z 2100/2124 08009KT P6SM VCSH FEW018
     FM211400 09010KT P6SM SCT020=



000
FTUS42 TJSJ 201800 AAA
TAFISX
TAF AMD
TISX 201819Z 2018/2118 09012KT P6SM SCT030
     FM202300 06007KT P6SM FEW030
     FM211300 09013KT P6SM SCT025
      AMD NOT SKED=



000
FTUS42 TJSJ 201700
TAFJSJ
TAF
TJSJ 201732Z 2018/2118 07014KT P6SM FEW030 FEW070
     FM202300 07005KT P6SM FEW025
     FM211300 06013KT P6SM SCT025=



000
FTUS42 TJSJ 201700
TAFJBQ
TAF
TJBQ 201732Z 2018/2118 08014G20KT P6SM SCT025
     FM202300 10007KT P6SM FEW025
     FM211400 08016G23KT P6SM SCT025
      AMD NOT SKED 2102/2111=



000
FTUS42 TJSJ 201700
TAFNCM
TAF
TNCM 201732Z 2018/2118 08013KT P6SM VCSH SCT020
     FM210600 08009KT P6SM FEW018
     FM211400 09012KT P6SM SCT020=



000
FTUS42 TJSJ 201700
TAFKPK
TAF
TKPK 201732Z 2018/2118 06013KT P6SM VCSH SCT017
     FM210600 06009KT P6SM FEW018
     FM211200 06012KT P6SM SCT018
      AMD NOT SKED 2102/2111=



000
FTUS42 TJSJ 201700
TAFIST
TAF
TIST 201732Z 2018/2118 09012KT P6SM FEW035
     FM202200 08009KT P6SM FEW030
     FM211300 09012KT P6SM SCT025=



000
FTUS42 TJSJ 201700
TAFISX
TAF
TISX 201732Z 2018/2118 09012KT P6SM SCT030
     FM202300 06007KT P6SM FEW030
     FM211300 09013KT P6SM SCT025=



000
FTUS42 TJSJ 201700
TAFJMZ
TAF
TJMZ 201732Z 2018/2118 27007KT P6SM SCT030 SCT045
     FM202300 06005KT P6SM FEW025
     FM211530 27010KT P6SM SCT025 BKN040
      AMD NOT SKED 2022/2115=



000
FTUS42 TJSJ 201700
TAFJPS
TAF
TJPS 201732Z 2018/2118 13010KT P6SM SCT035
     FM202200 05004KT P6SM FEW030
     FM211500 13012KT P6SM FEW030 SCT060
      AMD NOT SKED TIL 210300=



000
FTUS42 TJSJ 201100
TAFJPS
TAF
TJPS 201124Z 2012/2112 VRB03KT P6SM FEW030
     FM201400 13010KT P6SM SCT040
     FM202200 05004KT P6SM FEW030
      AMD NOT SKED TIL 210300=



000
FTUS42 TJSJ 201100
TAFIST
TAF
TIST 201124Z 2012/2112 11004KT P6SM FEW025
     FM201500 11011KT P6SM FEW035
     FM202200 09007KT P6SM FEW030
      AMD NOT SKED=



000
FTUS42 TJSJ 201100
TAFNCM
TAF
TNCM 201124Z 2012/2112 08009KT P6SM VCSH FEW019=



000
FTUS42 TJSJ 201100
TAFJMZ
TAF
TJMZ 201124Z 2012/2112 06005KT P6SM FEW035
     FM201530 07008KT P6SM FEW040
      AMD NOT SKED TIL 201500=



000
FTUS42 TJSJ 201100
TAFISX
TAF
TISX 201124Z 2012/2112 05005KT P6SM FEW030
     FM201500 09012KT P6SM SCT030
     FM202300 03005KT P6SM FEW030
      AMD NOT SKED=



000
FTUS42 TJSJ 201100
TAFJSJ
TAF
TJSJ 201124Z 2012/2112 VRB03KT P6SM FEW030
     FM201400 07012KT P6SM FEW030
     FM202300 08005KT P6SM FEW025=



000
FTUS42 TJSJ 201100
TAFJBQ
TAF
TJBQ 201124Z 2012/2112 11006KT P6SM FEW030
     FM201430 07014KT P6SM FEW030
     FM202300 10006KT P6SM FEW025
      AMD NOT SKED 2102/2111=



000
FTUS42 TJSJ 201100
TAFKPK
TAF
TKPK 201124Z 2012/2112 06010KT P6SM VCSH FEW020
      AMD NOT SKED 2102/2111=



000
FTUS42 TJSJ 200500
TAFISX
TAF
TISX 200536Z 2006/2106 03005KT P6SM FEW030
     FM201500 09012KT P6SM SCT030
     FM202300 03005KT P6SM FEW030
      AMD NOT SKED=



000
FTUS42 TJSJ 200500
TAFJSJ
TAF
TJSJ 200536Z 2006/2106 09004KT P6SM FEW030
     FM201400 06012KT P6SM FEW030
     FM202300 08005KT P6SM FEW025=



000
FTUS42 TJSJ 200500
TAFIST
TAF
TIST 200536Z 2006/2106 09006KT P6SM FEW030
     FM201500 10011KT P6SM FEW035
     FM202200 09007KT P6SM FEW030
      AMD NOT SKED=



000
FTUS42 TJSJ 200500
TAFJPS
TAF
TJPS 200536Z 2006/2106 00000KT P6SM FEW030
     FM201400 13010KT P6SM SCT040
     FM202200 05004KT P6SM FEW030
      AMD NOT SKED 2012/2103=



000
FTUS42 TJSJ 200500
TAFNCM
TAF
TNCM 200536Z 2006/2106 08007KT P6SM VCSH FEW020
     FM201430 08010KT P6SM FEW020=



000
FTUS42 TJSJ 200500
TAFJMZ
TAF
TJMZ 200536Z 2006/2106 06005KT P6SM FEW035
     FM201530 07008KT P6SM FEW040
      AMD NOT SKED TIL 201500=



000
FTUS42 TJSJ 200500
TAFJBQ
TAF
TJBQ 200536Z 2006/2106 11006KT P6SM FEW030
     FM201430 06014KT P6SM FEW030
     FM202300 10006KT P6SM FEW025
      AMD NOT SKED TIL 201100=



000
FTUS42 TJSJ 200500
TAFKPK
TAF
TKPK 200536Z 2006/2106 05009KT P6SM VCSH FEW020
     FM201430 07011KT P6SM FEW020
      AMD NOT SKED TIL 201100=



000
FTUS42 TJSJ 192300
TAFIST
TAF
TIST 192320Z 2000/2024 09009KT P6SM FEW025 SCT040
     FM200530 07006KT P6SM FEW025
     FM201500 11014KT P6SM SCT030
      AMD NOT SKED=



000
FTUS42 TJSJ 192300
TAFNCM
TAF
TNCM 192320Z 2000/2024 09009KT P6SM FEW019 SCT040
     FM200430 08008KT P6SM VCSH SCT019
     FM201430 08010KT P6SM FEW022 SCT040=



000
FTUS42 TJSJ 192300
TAFJMZ
TAF
TJMZ 192320Z 2000/2024 07005KT P6SM FEW030 BKN060
     FM200230 00000KT P6SM FEW070
     FM201530 07009KT P6SM VCSH FEW025 SCT040
     FM202130 08005KT P6SM FEW030 SCT060
      AMD NOT SKED TIL 201100=



000
FTUS42 TJSJ 192300
TAFJPS
TAF
TJPS 192320Z 2000/2024 10007KT P6SM FEW030 BKN060
     FM200500 05003KT P6SM FEW030 SCT080
     FM201600 15012KT P6SM SCT030
      AMD NOT SKED TIL 200300=



000
FTUS42 TJSJ 192300
TAFJBQ
TAF
TJBQ 192320Z 2000/2024 08011KT P6SM FEW030 SCT070
     FM200200 10003KT P6SM FEW030
     FM201430 06014KT P6SM FEW025 SCT050
      AMD NOT SKED 2002/2011=



000
FTUS42 TJSJ 192300
TAFISX
TAF
TISX 192320Z 2000/2024 05009KT P6SM FEW025 SCT040
     FM200530 04005KT P6SM FEW025
     FM201500 09014KT P6SM SCT030
      AMD NOT SKED=



000
FTUS42 TJSJ 192300
TAFKPK
TAF
TKPK 192320Z 2000/2024 05009KT P6SM FEW018 SCT040
     FM200430 08008KT P6SM VCSH SCT019
     FM201430 07008KT P6SM FEW020 SCT040
      AMD NOT SKED TIL 201100=



000
FTUS42 TJSJ 192300
TAFJSJ
TAF
TJSJ 192320Z 2000/2024 07010KT P6SM FEW030 SCT070
     FM200600 08005KT P6SM SCT025
     FM201400 06015KT P6SM FEW025 SCT060=



000
FTUS42 TJSJ 191700
TAFNCM
TAF
TNCM 191734Z 1918/2018 07010KT P6SM FEW019 BKN040
     FM192300 08008KT P6SM VCSH SCT019
     FM201430 08010KT P6SM FEW020 SCT040=



000
FTUS42 TJSJ 191700
TAFIST
TAF
TIST 191734Z 1918/2018 07008KT P6SM FEW025 SCT040 BKN070
     FM192300 07008KT P6SM FEW025
     FM201500 09013KT P6SM SCT030=



000
FTUS42 TJSJ 191700
TAFJSJ
TAF
TJSJ 191734Z 1918/2018 07014KT P6SM SKC
     FM192200 08006KT P6SM FEW030
     FM201400 05011KT P6SM FEW025 SCT070=



000
FTUS42 TJSJ 191700
TAFJPS
TAF
TJPS 191734Z 1918/2018 17010G15KT P6SM FEW050
     FM192300 05006KT P6SM FEW030 FEW060
     FM201600 17012KT P6SM VCSH SCT030 SCT050
      AMD NOT SKED TIL 200300=



000
FTUS42 TJSJ 191700
TAFJBQ
TAF
TJBQ 191734Z 1918/2018 10013G19KT P6SM VCSH SCT020
     FM192300 10007KT P6SM FEW025
     FM201400 07014KT P6SM SCT030 SCT070
      AMD NOT SKED 2002/2011=



000
FTUS42 TJSJ 191700
TAFISX
TAF
TISX 191734Z 1918/2018 05010KT P6SM FEW025 SCT040 BKN070
     FM192300 06006KT P6SM FEW025
     FM201500 08013KT P6SM SCT030=



000
FTUS42 TJSJ 191700
TAFJMZ
TAF
TJMZ 191734Z 1918/2018 06003KT P6SM OVC090
     FM192230 07005KT P6SM FEW030 SCT060
     FM201530 08010KT P6SM VCSH SCT030=



000
FTUS42 TJSJ 191700
TAFKPK
TAF
TKPK 191734Z 1918/2018 05009KT P6SM FEW018 SCT040
     FM192300 08008KT P6SM VCSH SCT019
     FM201430 07008KT P6SM FEW020 SCT040=



000
FTUS42 TJSJ 191100
TAFJMZ
TAF
TJMZ 191131Z 1912/2012 06003KT P6SM OVC090
     FM191530 08010KT P6SM VCSH SCT030
     FM192230 07005KT P6SM FEW030 SCT060
      AMD NOT SKED TIL 191500=



000
FTUS42 TJSJ 191100
TAFJSJ
TAF
TJSJ 191131Z 1912/2012 12003KT P6SM FEW030 SCT060
     FM191450 05011KT P6SM FEW025 SCT070
     FM192200 08006KT P6SM FEW030=



000
FTUS42 TJSJ 191100
TAFJBQ
TAF
TJBQ 191131Z 1912/2012 08006KT P6SM VCSH SCT022 SCT050 BKN100
     FM191450 07014KT P6SM SCT030 SCT070
     FM192300 10007KT P6SM FEW025
      AMD NOT SKED 2002/2011=



000
FTUS42 TJSJ 191100
TAFKPK
TAF
TKPK 191131Z 1912/2012 05009KT P6SM VCSH FEW018 SCT040
     FM191430 07008KT P6SM FEW020 SCT040
     FM192300 08008KT P6SM VCSH SCT019=



000
FTUS42 TJSJ 191100
TAFISX
TAF
TISX 191131Z 1912/2012 05010KT P6SM VCSH FEW025 SCT040 BKN070
     FM191500 08013KT P6SM SCT030
     FM192300 06006KT P6SM FEW025
      AMD NOT SKED=



000
FTUS42 TJSJ 191100
TAFIST
TAF
TIST 191131Z 1912/2012 07008KT P6SM VCSH FEW025 SCT040 BKN070
     FM191500 09013KT P6SM SCT030
     FM192300 07008KT P6SM FEW025
      AMD NOT SKED=



000
FTUS42 TJSJ 191100
TAFJPS
TAF
TJPS 191131Z 1912/2012 04002KT P6SM FEW030 SCT050
     FM191600 17012KT P6SM VCSH SCT030 SCT050
     FM192300 05006KT P6SM FEW030 FEW060
      AMD NOT SKED TIL 200300=



000
FTUS42 TJSJ 191100
TAFNCM
TAF
TNCM 191131Z 1912/2012 07010KT P6SM VCSH FEW019 BKN040
     FM191430 08010KT P6SM FEW020 SCT040
     FM192300 08008KT P6SM VCSH SCT019=



000
FTUS42 TJSJ 190500 RRA
TAFISX
TAF
TISX 190546Z 1906/2006 05010KT P6SM VCSH FEW025 SCT040 BKN070
     FM191500 08013KT P6SM SCT030
     FM192300 06006KT P6SM FEW025
      AMD NOT SKED=



000
FTUS42 TJSJ 190500 RRA
TAFJSJ
TAF
TJSJ 190546Z 1906/2006 12003KT P6SM FEW030 SCT060
     FM191450 05011KT P6SM FEW025 SCT070
     FM192200 08006KT P6SM FEW030=



000
FTUS42 TJSJ 190500 RRA
TAFNCM
TAF
TNCM 190546Z 1906/2006 07010KT P6SM VCSH FEW019 BKN040
     FM191430 08010KT P6SM FEW020 SCT040=



000
FTUS42 TJSJ 190500 RRA
TAFJPS
TAF
TJPS 190546Z 1906/2006 04002KT P6SM FEW030 SCT050
     FM191600 17012KT P6SM VCSH SCT030 SCT050
     FM192300 05006KT P6SM FEW030 FEW060=



000
FTUS42 TJSJ 190500 RRA
TAFKPK
TAF
TKPK 190546Z 1906/2006 05009KT P6SM VCSH FEW018 SCT040
     FM191430 07008KT P6SM FEW020 SCT040
      AMD NOT SKED TIL 191100=



000
FTUS42 TJSJ 190500 RRA
TAFJBQ
TAF
TJBQ 190546Z 1906/2006 07007KT P6SM VCSH SCT030 BKN050 OVC100
     FM190930 08006KT P6SM VCSH SCT022 SCT050 BKN100
     FM191450 07014KT P6SM SCT030 SCT070
     FM192300 10007KT P6SM FEW025
      AMD NOT SKED TIL 191100=



000
FTUS42 TJSJ 190500 RRA
TAFIST
TAF
TIST 190546Z 1906/2006 07008KT P6SM VCSH FEW025 SCT040 BKN070
     FM191500 09013KT P6SM SCT030
     FM192300 07008KT P6SM FEW025
      AMD NOT SKED=



000
FTUS42 TJSJ 190500 RRA
TAFJMZ
TAF
TJMZ 190546Z 1906/2006 06003KT P6SM OVC090
     FM191530 08010KT P6SM VCSH SCT030
     FM192230 07005KT P6SM FEW030 SCT060
      AMD NOT SKED TIL 191100=



000
FTUS42 TJSJ 182300 CCA
TAFJSJ
TAF COR
TJSJ 182328Z 1900/1924 07009KT P6SM -RA FEW025 SCT040 BKN080
      TEMPO 1900/1902 VRB12KT 5SM SHRA BKN025
     FM190430 08006KT P6SM VCSH SCT025 SCT040 SCT080 PROB30
      1909/1913 VRB12KT -SHRA BKN025
     FM191450 05011KT P6SM FEW025 SCT070=



000
FTUS42 TJSJ 182300
TAFJPS
TAF
TJPS 182320Z 1900/1924 07007KT P6SM -RA SCT030 BKN060
     FM190300 04002KT P6SM FEW030 SCT080
     FM191600 17012KT P6SM VCSH SCT030 SCT050
     FM192300 05006KT P6SM FEW030 SCT080
      AMD NOT SKED TIL 190300=



000
FTUS42 TJSJ 182300
TAFJSJ
TAF
TJSJ 182320Z 1900/1924 02013KT P6SM -RA FEW026 SCT035 BKN080
     FM190430 06006KT P6SM VCSH SCT025 SCT040 SCT080 PROB30
      1909/1913 VRB12KT -SHRA BKN025
     FM191450 05011KT P6SM FEW025 SCT070=



000
FTUS42 TJSJ 182300
TAFJMZ
TAF
TJMZ 182320Z 1900/1924 06005KT P6SM FEW035 SCT090
     FM190300 06003KT P6SM FEW090
     FM191530 08010KT P6SM VCSH SCT030
     FM192230 07005KT P6SM FEW030 SCT060
      AMD NOT SKED TIL 191100=



000
FTUS42 TJSJ 182300
TAFKPK
TAF
TKPK 182320Z 1900/1924 05009KT P6SM VCSH FEW018 SCT040 PROB30
      1909/1913 VRB12KT -SHRA BKN018
     FM191430 05008KT P6SM FEW020 SCT040
      AMD NOT SKED 1902/1911=



000
FTUS42 TJSJ 182300
TAFIST
TAF
TIST 182320Z 1900/1924 06012KT P6SM -RA FEW022 BKN050 BKN080
     FM190500 05007KT P6SM VCSH SCT025 SCT040 PROB30 1909/1913 -SHRA
      BKN025
     FM191500 09013KT P6SM SCT030
      AMD NOT SKED=



000
FTUS42 TJSJ 182300
TAFJBQ
TAF
TJBQ 182320Z 1900/1924 07012KT P6SM -RA SCT020 BKN050 BKN080
     FM190200 09007KT P6SM FEW025 SCT080
     FM190930 08006KT P6SM VCSH SCT022 BKN050
     FM191450 07014KT P6SM SCT030 SCT070
      AMD NOT SKED 1902/1911=



000
FTUS42 TJSJ 182300
TAFISX
TAF
TISX 182320Z 1900/1924 05006KT P6SM -RA FEW022 SCT050 SCT080
     FM190500 06010KT P6SM VCSH SCT025 SCT040 PROB30 1909/1913 -SHRA
      BKN025
     FM191500 08013KT P6SM SCT030
      AMD NOT SKED=



000
FTUS42 TJSJ 182300
TAFNCM
TAF
TNCM 182320Z 1900/1924 07010KT P6SM VCSH FEW019 SCT040 PROB30
      1909/1913 VRB12KT -SHRA BKN018
     FM191430 07010KT P6SM FEW020 SCT040=



000
FTUS42 TJSJ 182100 AAB
TAFIST
TAF AMD
TIST 182109Z 1821/1918 07011KT P6SM VCSH FEW020 SCT040 BKN080
     FM182330 06009KT P6SM FEW022 SCT050 SCT080
     FM191000 05007KT P6SM VCSH SCT025 SCT040
     FM191500 09013KT P6SM SCT030=



000
FTUS42 TJSJ 182100 AAA
TAFISX
TAF AMD
TISX 182107Z 1821/1918 06011KT P6SM VCSH SCT020 BKN040 BKN080
     FM182330 05006KT P6SM FEW022 SCT050 SCT080
     FM191000 06010KT P6SM VCSH SCT025 SCT040
     FM191500 08013KT P6SM SCT030=



000
FTUS42 TJSJ 181900 AAA
TAFIST
TAF AMD
TIST 181923Z 1819/1918 05010KT P6SM VCSH FEW025 SCT040
     FM182300 06008KT P6SM VCSH SCT030 SCT050
     FM191400 05012KT P6SM VCSH SCT025
      AMD NOT SKED=



000
FTUS42 TJSJ 181700 RRA
TAFJBQ
TAF
TJBQ 181744Z 1818/1918 07016G22KT P6SM VCSH SCT030 BKN040 BKN050
     FM182300 09005KT P6SM FEW025
     FM191400 07014KT P6SM VCSH SCT025=



000
FTUS42 TJSJ 181700 RRA
TAFNCM
TAF
TNCM 181744Z 1818/1918 09010KT P6SM VCSH SCT017 BKN035
     FM182300 08008KT P6SM VCSH SCT019
     FM191300 07010KT P6SM VCSH SCT018 SCT035=



000
FTUS42 TJSJ 181700 RRA
TAFJSJ
TAF
TJSJ 181744Z 1818/1918 02013KT P6SM VCSH FEW026 SCT035 BKN080
     FM182200 06006KT P6SM SCT030
     FM191400 05011KT P6SM VCSH SCT030 SCT070=



000
FTUS42 TJSJ 181700 RRA
TAFKPK
TAF
TKPK 181744Z 1818/1918 02010KT P6SM FEW015 SCT045
     FM182300 06006KT P6SM VCSH SCT017 BKN040
     FM191330 05008KT P6SM VCSH SCT018 SCT035=



000
FTUS42 TJSJ 181700 RRA
TAFISX
TAF
TISX 181744Z 1818/1918 01005KT P6SM SCT022
     FM182300 05006KT P6SM VCSH SCT025 SCT045
     FM191330 06010KT P6SM VCSH FEW025 SCT040=



000
FTUS42 TJSJ 181700 RRA
TAFIST
TAF
TIST 181744Z 1818/1918 05010KT P6SM VCSH FEW025 SCT040
     FM182300 06008KT P6SM VCSH SCT030 SCT050
     FM191400 05012KT P6SM VCSH SCT025=



000
FTUS42 TJSJ 181700 RRA
TAFJPS
TAF
TJPS 181744Z 1818/1918 06003KT P6SM FEW025 SCT060
     FM182330 06003KT P6SM FEW030 SCT060
     FM191600 17009KT P6SM VCSH FEW030 SCT050
      AMD NOT SKED TIL 190300=



000
FTUS42 TJSJ 181700 RRA
TAFJMZ
TAF
TJMZ 181744Z 1818/1918 09011KT P6SM SCT030 BKN050
     FM182200 06006KT P6SM FEW040
     FM191530 05012KT P6SM VCSH SCT030
      AMD NOT SKED=



000
FTUS42 TJSJ 181100
TAFJBQ
TAF
TJBQ 181133Z 1812/1912 02003KT 6SM RA VCSH BKN030
     FM181400 07014KT P6SM VCSH SCT025
     FM182300 09005KT P6SM FEW025=



000
FTUS42 TJSJ 181100
TAFIST
TAF
TIST 181133Z 1812/1912 05010KT P6SM VCSH FEW025 SCT040
     FM181400 05012KT P6SM VCSH SCT025
     FM182300 06008KT P6SM VCSH SCT030 SCT050=



000
FTUS42 TJSJ 181100
TAFJSJ
TAF
TJSJ 181133Z 1812/1912 03008KT P6SM VCSH FEW022 SCT035 SCT090
     FM181400 05011KT P6SM VCSH SCT030 SCT070
     FM182200 06006KT P6SM SCT030=



000
FTUS42 TJSJ 181100
TAFISX
TAF
TISX 181133Z 1812/1912 01005KT P6SM SCT022
     FM181330 06010KT P6SM VCSH FEW025 SCT040
     FM182300 05006KT P6SM VCSH SCT025 SCT045=



000
FTUS42 TJSJ 181100
TAFKPK
TAF
TKPK 181133Z 1812/1912 02007KT P6SM FEW021
     FM181330 05008KT P6SM VCSH SCT018 SCT035
     FM182300 06006KT P6SM VCSH SCT017 BKN040=



000
FTUS42 TJSJ 181100
TAFNCM
TAF
TNCM 181133Z 1812/1912 04006KT P6SM VCSH FEW019 BKN040
     FM181300 07010KT P6SM VCSH SCT018 SCT035
     FM182300 08008KT P6SM VCSH SCT019=



000
FTUS42 TJSJ 181100
TAFJPS
TAF
TJPS 181133Z 1812/1912 06003KT P6SM FEW025 SCT060
     FM181600 17009KT P6SM VCSH FEW030 SCT050
     FM182330 06003KT P6SM FEW030 SCT060
      AMD NOT SKED TIL 190300=



000
FTUS42 TJSJ 181100
TAFJMZ
TAF
TJMZ 181133Z 1812/1912 05005KT P6SM SCT050
     FM181530 05012KT P6SM VCSH SCT030
     FM182200 06006KT P6SM FEW040
      AMD NOT SKED=



000
FTUS42 TJSJ 180900 AAA
TAFJBQ
TAF AMD
TJBQ 180908Z 1809/1906 06010KT P6SM VCSH SCT030 SCT060
      TEMPO 1809/1810 -SHRA SCT020 BKN030
     FM181400 07014KT P6SM SCT025
     FM182300 09005KT P6SM FEW025
      AMD NOT SKED TIL 181100=



000
FTUS42 TJSJ 180900 AAA
TAFJBQ
TAF AMD
TJBQ 180908Z 1809/1906 06010KT P6SM VCSH SCT030 SCT060
      TEMPO 1809/1810 -SHRA SCT020 BKN030
     FM181400 07014KT P6SM SCT025
     FM182300 09005KT P6SM FEW025
      AMD NOT SKED TIL 181100=



000
FTUS42 TJSJ 180800 AAA
TAFNCM
TAF AMD
TNCM 180815Z 1808/1906 04010KT P6SM VCSH FEW019 SCT040
      TEMPO 1808/1810 5SM -SHRA SCT018 BKN030
     FM181300 07010KT P6SM FEW018
     FM182300 08008KT P6SM FEW022=



000
FTUS42 TJSJ 180800 AAA
TAFNCM
TAF AMD
TNCM 180815Z 1808/1906 04010KT P6SM VCSH FEW019 SCT040
      TEMPO 1808/1810 5SM -SHRA SCT018 BKN030
     FM181300 07010KT P6SM FEW018
     FM182300 08008KT P6SM FEW022=



000
FTUS42 TJSJ 180500 RRA
TAFKPK
TAF
TKPK 180544Z 1806/1906 01007KT P6SM FEW016 SCT030
     FM181330 05008KT P6SM FEW021
     FM182300 06006KT P6SM FEW025
      AMD NOT SKED TIL 181100=



000
FTUS42 TJSJ 180500 RRA
TAFJSJ
TAF
TJSJ 180544Z 1806/1906 03008KT P6SM VCSH FEW025 SCT030 SCT080
     FM181400 05011KT P6SM FEW030 SCT070
     FM182200 06006KT P6SM FEW030=



000
FTUS42 TJSJ 180500 RRA
TAFNCM
TAF
TNCM 180544Z 1806/1906 04010KT P6SM VCSH FEW019 SCT040
     FM181300 07010KT P6SM FEW018
     FM182300 08008KT P6SM FEW022=



000
FTUS42 TJSJ 180500 RRA
TAFJMZ
TAF
TJMZ 180544Z 1806/1906 05005KT P6SM SCT070
     FM181530 05012KT P6SM SCT030
     FM182200 06006KT P6SM FEW040
      AMD NOT SKED=



000
FTUS42 TJSJ 180500 RRA
TAFJPS
TAF
TJPS 180544Z 1806/1906 06003KT P6SM FEW025 SCT060
     FM181600 17009KT P6SM FEW030 FEW050
     FM182330 06003KT P6SM FEW030 SCT060
      AMD NOT SKED 1812/1903=



000
FTUS42 TJSJ 180500 RRA
TAFIST
TAF
TIST 180544Z 1806/1906 05010KT P6SM VCSH FEW025 SCT040
     FM181400 05012KT P6SM FEW025
     FM182300 06008KT P6SM FEW025=



000
FTUS42 TJSJ 180500 RRA
TAFISX
TAF
TISX 180544Z 1806/1906 03005KT P6SM FEW025
     FM181330 06010KT P6SM FEW025 SCT040
     FM182300 05006KT P6SM FEW025=



000
FTUS42 TJSJ 180500 RRA
TAFJBQ
TAF
TJBQ 180544Z 1806/1906 06010KT P6SM SCT030 SCT060
     FM181400 07014KT P6SM SCT025
     FM182300 09005KT P6SM FEW025
      AMD NOT SKED TIL 181100=



    US Dept of Commerce
    National Oceanic and Atmospheric Administration
    National Weather Service
    1325 East West Highway
    Silver Spring, MD 20910
    Page Author: NWS Internet Services Team
Disclaimer
Information Quality
Credits
Glossary
Privacy Policy
Freedom of Information Act (FOIA)
About Us
Career Opportunities